Time;durP1;ratioP1;P1;durP2;ratioP2;P2;SDS_P1;SDS_P2;PMS_P1;PMS_P2;Temp;Humidity;BMP_temperature;BMP_pressure;BME280_temperature;BME280_humidity;BME280_pressure;Samples;Min_cycle;Max_cycle;Signal;HPM_P1;HPM_P2
2023/02/19 00:00:13;;;;;;;4.90;3.60;;;5.80;1.00;;;;;;5043155;28;20604;-82
2023/02/19 00:02:41;;;;;;;4.10;3.33;;;5.20;1.00;;;;;;5041596;28;20226;-82
2023/02/19 00:05:09;;;;;;;3.33;3.00;;;5.80;1.00;;;;;;5043038;28;20288;-82
2023/02/19 00:07:36;;;;;;;4.03;2.78;;;5.60;1.00;;;;;;5041746;28;20292;-82
2023/02/19 00:10:03;;;;;;;4.97;3.72;;;5.90;1.00;;;;;;5042815;28;20197;-83
2023/02/19 00:12:30;;;;;;;5.30;3.92;;;5.50;1.00;;;;;;5040605;28;20287;-82
2023/02/19 00:14:57;;;;;;;5.20;3.72;;;6.30;1.00;;;;;;5042097;28;20304;-82
2023/02/19 00:17:24;;;;;;;4.40;4.00;;;5.70;1.00;;;;;;5042815;28;20216;-83
2023/02/19 00:19:50;;;;;;;5.50;3.53;;;6.00;1.00;;;;;;5043065;28;20247;-83
2023/02/19 00:22:19;;;;;;;5.22;3.67;;;7.10;1.00;;;;;;5041838;28;20212;-82
2023/02/19 00:24:45;;;;;;;4.57;3.28;;;5.70;1.00;;;;;;5041821;28;20236;-84
2023/02/19 00:27:12;;;;;;;5.00;3.72;;;5.70;1.00;;;;;;5045514;28;20210;-83
2023/02/19 00:29:39;;;;;;;4.35;3.95;;;6.10;1.00;;;;;;5045213;28;20219;-83
2023/02/19 00:32:06;;;;;;;4.40;3.78;;;5.80;1.00;;;;;;5043663;28;20273;-83
2023/02/19 00:34:33;;;;;;;5.25;3.50;;;5.60;1.00;;;;;;5052700;28;20248;-85
2023/02/19 00:37:00;;;;;;;4.65;4.25;;;5.90;1.00;;;;;;5056090;28;20193;-83
2023/02/19 00:39:28;;;;;;;4.43;4.03;;;6.30;1.00;;;;;;5051077;28;20301;-83
2023/02/19 00:41:55;;;;;;;4.88;3.67;;;;;;;;;;5046866;28;20241;-83
2023/02/19 00:44:22;;;;;;;4.25;3.95;;;;;;;;;;5046548;28;20232;-83
2023/02/19 00:46:49;;;;;;;5.88;4.32;;;6.20;1.00;;;;;;5046099;28;20742;-83
2023/02/19 00:49:18;;;;;;;5.82;4.90;;;5.80;1.00;;;;;;5056001;28;20236;-82
2023/02/19 00:51:45;;;;;;;6.00;4.63;;;6.10;1.00;;;;;;5055651;28;20256;-82
2023/02/19 00:54:13;;;;;;;5.97;5.30;;;6.20;1.00;;;;;;5056792;28;20253;-82
2023/02/19 00:56:42;;;;;;;5.20;4.70;;;6.30;1.00;;;;;;5045461;28;20236;-83
2023/02/19 00:59:09;;;;;;;5.55;4.70;;;6.30;1.00;;;;;;5043200;28;20225;-82
2023/02/19 01:01:36;;;;;;;8.35;5.60;;;5.70;1.00;;;;;;5044898;28;20205;-83
2023/02/19 01:04:02;;;;;;;8.18;5.88;;;5.90;1.00;;;;;;5045436;28;20311;-83
2023/02/19 01:06:31;;;;;;;6.80;5.32;;;5.60;1.00;;;;;;5050530;28;20211;-82
2023/02/19 01:08:58;;;;;;;7.22;5.40;;;6.30;1.00;;;;;;5052355;28;20204;-82
2023/02/19 01:11:26;;;;;;;7.07;6.03;;;6.10;1.00;;;;;;5052243;28;20233;-83
2023/02/19 01:13:57;;;;;;;8.00;5.57;;;6.10;1.00;;;;;;5041842;28;20293;-80
2023/02/19 01:16:24;;;;;;;8.70;6.57;;;6.00;1.00;;;;;;5037931;28;20191;-80
2023/02/19 01:18:51;;;;;;;7.05;5.95;;;5.80;1.00;;;;;;5037720;28;20598;-79
2023/02/19 01:21:21;;;;;;;8.85;6.90;;;6.00;1.00;;;;;;5037694;28;20248;-79
2023/02/19 01:23:49;;;;;;;8.70;5.95;;;5.90;1.00;;;;;;5039662;28;20696;-79
2023/02/19 01:26:19;;;;;;;7.10;5.20;;;5.70;1.00;;;;;;5046250;28;20205;-80
2023/02/19 01:28:47;;;;;;;10.32;5.70;;;5.70;1.00;;;;;;5044906;28;20280;-79
2023/02/19 01:31:17;;;;;;;8.70;6.00;;;6.20;1.00;;;;;;5041460;28;20204;-79
2023/02/19 01:33:46;;;;;;;6.53;5.80;;;6.00;1.00;;;;;;5040089;28;20225;-79
2023/02/19 01:36:13;;;;;;;6.78;5.45;;;5.70;1.00;;;;;;5039441;28;20212;-80
2023/02/19 01:38:40;;;;;;;7.13;5.60;;;6.20;1.00;;;;;;5038253;28;20204;-79
2023/02/19 01:41:09;;;;;;;6.72;5.93;;;5.60;1.00;;;;;;5038070;28;20209;-80
2023/02/19 01:43:58;;;;;;;5.88;5.28;;;6.80;1.00;;;;;;5038439;28;20241;-79
2023/02/19 01:46:28;;;;;;;7.85;5.88;;;6.20;1.00;;;;;;5042231;28;20193;-80
2023/02/19 01:48:58;;;;;;;7.65;5.60;;;5.90;1.00;;;;;;5045918;28;20204;-79
2023/02/19 01:51:25;;;;;;;6.72;6.03;;;;;;;;;;5050703;28;20206;-78
2023/02/19 01:53:55;;;;;;;6.93;5.65;;;5.70;1.00;;;;;;5057512;28;20316;-79
2023/02/19 01:56:24;;;;;;;5.95;4.50;;;6.00;1.00;;;;;;5056447;28;20216;-77
2023/02/19 01:58:52;;;;;;;6.80;4.47;;;;;;;;;;5045651;28;20288;-79
2023/02/19 02:01:18;;;;;;;5.25;4.80;;;6.00;1.00;;;;;;5039757;28;20208;-80
2023/02/19 02:03:49;;;;;;;5.28;4.20;;;5.90;1.00;;;;;;5038035;28;20224;-79
2023/02/19 02:06:20;;;;;;;5.50;4.85;;;5.40;1.00;;;;;;5036090;28;20199;-79
2023/02/19 02:11:34;;;;;;;5.85;3.60;;;5.40;1.00;;;;;;5039538;28;20264;-79
2023/02/19 02:14:01;;;;;;;6.70;4.40;;;;;;;;;;5041603;28;20223;-79
2023/02/19 02:16:38;;;;;;;4.85;3.35;;;5.40;1.00;;;;;;5038322;28;20214;-78
2023/02/19 02:19:21;;;;;;;8.23;4.28;;;5.10;1.00;;;;;;5035574;28;20197;-79
2023/02/19 02:22:02;;;;;;;5.95;4.35;;;5.50;1.00;;;;;;5036248;28;20192;-79
2023/02/19 02:24:44;;;;;;;4.93;4.40;;;4.60;1.00;;;;;;5035657;28;20606;-80
2023/02/19 02:27:34;;;;;;;4.22;3.83;;;5.40;1.00;;;;;;5035120;28;20189;-80
2023/02/19 02:30:26;;;;;;;5.80;4.68;;;5.30;1.00;;;;;;5035941;28;20205;-80
2023/02/19 02:33:00;;;;;;;5.85;4.30;;;5.00;1.00;;;;;;5039108;28;20225;-80
2023/02/19 02:35:31;;;;;;;6.95;4.45;;;5.20;1.00;;;;;;5038337;28;20208;-79
2023/02/19 02:38:02;;;;;;;6.10;3.85;;;4.90;1.00;;;;;;5039487;28;20271;-80
2023/02/19 02:40:29;;;;;;;4.07;3.78;;;;;;;;;;5041078;28;20209;-79
2023/02/19 02:42:57;;;;;;;11.23;4.00;;;5.30;99.90;;;;;;5040428;28;20242;-79
2023/02/19 02:45:37;;;;;;;7.53;4.43;;;5.40;1.00;;;;;;5040303;28;20207;-79
2023/02/19 02:48:27;;;;;;;6.55;4.10;;;5.40;1.00;;;;;;5038912;28;20196;-79
2023/02/19 02:50:58;;;;;;;4.97;3.72;;;4.80;1.00;;;;;;5031033;28;20209;-80
2023/02/19 02:56:16;;;;;;;9.88;4.60;;;4.90;99.90;;;;;;5034639;28;20227;-79
2023/02/19 02:58:44;;;;;;;7.03;4.40;;;4.80;1.00;;;;;;5034529;28;20203;-79
2023/02/19 03:04:05;;;;;;;6.75;4.32;;;4.70;1.00;;;;;;5034915;28;20226;-79
2023/02/19 03:06:36;;;;;;;5.07;3.92;;;5.10;1.00;;;;;;5036096;28;20188;-79
2023/02/19 03:09:11;;;;;;;15.85;5.72;;;4.70;1.00;;;;;;5040126;28;20192;-78
2023/02/19 03:20:10;;;;;;;12.18;4.68;;;3.10;99.90;;;;;;5038103;28;20347;-79
2023/02/19 03:22:38;;;;;;;7.95;3.92;;;4.80;1.00;;;;;;5038376;28;20220;-78
2023/02/19 03:27:56;;;;;;;10.15;4.00;;;4.60;1.00;;;;;;5038945;28;20188;-79
2023/02/19 03:30:28;;;;;;;8.85;5.40;;;4.20;1.00;;;;;;5039307;28;20188;-79
2023/02/19 03:33:00;;;;;;;7.85;3.70;;;4.40;99.90;;;;;;5042130;28;20224;-77
2023/02/19 03:35:31;;;;;;;9.35;4.78;;;6.00;99.90;;;;;;5046198;28;20194;-78
2023/02/19 03:38:04;;;;;;;7.40;4.82;;;3.90;1.00;;;;;;5038679;28;20193;-79
2023/02/19 03:40:37;;;;;;;6.78;5.25;;;4.10;1.00;;;;;;5039845;28;20243;-79
2023/02/19 03:43:14;;;;;;;11.48;2.92;;;4.10;1.00;;;;;;5038986;28;20227;-79
2023/02/19 03:45:48;;;;;;;10.50;4.13;;;4.10;1.00;;;;;;5040659;28;20198;-80
2023/02/19 03:48:25;;;;;;;4.22;3.75;;;4.20;1.00;;;;;;5042755;28;20275;-79
2023/02/19 03:51:01;;;;;;;6.40;4.05;;;3.90;1.00;;;;;;5038780;28;20190;-79
2023/02/19 03:53:34;;;;;;;6.63;4.47;;;4.10;1.00;;;;;;5037767;28;20224;-79
2023/02/19 03:56:10;;;;;;;5.82;3.00;;;3.80;1.00;;;;;;5041840;28;20212;-78
2023/02/19 03:58:44;;;;;;;9.65;3.90;;;4.10;1.00;;;;;;5042686;28;20196;-78
2023/02/19 04:01:16;;;;;;;4.18;3.75;;;3.50;1.00;;;;;;5041502;28;20204;-78
2023/02/19 04:03:50;;;;;;;6.57;3.97;;;3.80;1.00;;;;;;5044309;28;20235;-78
2023/02/19 04:06:22;;;;;;;5.43;2.42;;;3.70;1.00;;;;;;5042682;28;20208;-78
2023/02/19 04:08:53;;;;;;;7.03;2.80;;;3.70;1.00;;;;;;5041772;28;20630;-79
2023/02/19 04:11:22;;;;;;;6.25;2.05;;;3.60;1.00;;;;;;5041370;28;20212;-78
2023/02/19 04:13:55;;;;;;;4.65;2.60;;;3.90;1.00;;;;;;5040097;28;20395;-78
2023/02/19 04:16:26;;;;;;;5.50;3.00;;;3.60;1.00;;;;;;5036841;28;20561;-79
2023/02/19 04:18:58;;;;;;;5.03;2.78;;;3.50;1.00;;;;;;5037372;28;20215;-78
2023/02/19 04:21:28;;;;;;;4.45;2.47;;;3.80;1.00;;;;;;5039409;28;20208;-79
2023/02/19 04:23:57;;;;;;;7.38;2.45;;;3.40;1.00;;;;;;5038630;28;20643;-79
2023/02/19 04:26:24;;;;;;;7.60;3.85;;;3.70;1.00;;;;;;5036433;28;20216;-79
2023/02/19 04:28:51;;;;;;;3.42;3.13;;;;;;;;;;5036856;28;20204;-78
2023/02/19 04:31:18;;;;;;;5.70;3.20;;;;;;;;;;5037082;28;20196;-78
2023/02/19 04:33:45;;;;;;;4.35;3.30;;;3.20;1.00;;;;;;5037097;28;20230;-78
2023/02/19 04:36:13;;;;;;;6.78;3.50;;;3.50;1.00;;;;;;5037355;28;20301;-78
2023/02/19 04:38:40;;;;;;;8.20;3.50;;;3.60;1.00;;;;;;5037052;28;20578;-78
2023/02/19 04:41:08;;;;;;;3.45;2.97;;;3.70;1.00;;;;;;5039376;28;20335;-79
2023/02/19 04:43:35;;;;;;;6.43;3.35;;;;;;;;;;5071549;22;20231;-86
2023/02/19 04:46:02;;;;;;;5.93;3.30;;;3.50;1.00;;;;;;5065416;28;20205;-86
2023/02/19 04:48:29;;;;;;;6.93;2.75;;;3.40;1.00;;;;;;5066239;28;20289;-86
2023/02/19 04:50:56;;;;;;;11.75;2.38;;;3.40;1.00;;;;;;5071368;28;20210;-86
2023/02/19 04:53:25;;;;;;;11.93;2.40;;;;;;;;;;5065617;28;20239;-86
2023/02/19 04:55:52;;;;;;;2.95;1.67;;;3.20;1.00;;;;;;5065038;28;20199;-85
2023/02/19 04:58:21;;;;;;;2.80;1.75;;;3.10;1.00;;;;;;5065020;28;20209;-85
2023/02/19 05:00:51;;;;;;;1.85;1.67;;;3.20;1.00;;;;;;5067077;28;20226;-86
2023/02/19 05:03:21;;;;;;;6.03;1.70;;;;;;;;;;5078887;28;20219;-85
2023/02/19 05:05:48;;;;;;;3.83;2.38;;;;;;;;;;5074824;28;20200;-87
2023/02/19 05:08:15;;;;;;;3.85;2.60;;;;;;;;;;5065486;28;20308;-87
2023/02/19 05:10:43;;;;;;;3.53;2.25;;;2.80;1.00;;;;;;5068428;28;20202;-86
2023/02/19 05:13:11;;;;;;;5.55;3.10;;;;;;;;;;5071756;28;20254;-86
2023/02/19 05:15:38;;;;;;;5.22;2.85;;;;;;;;;;5073461;28;20237;-86
2023/02/19 05:18:05;;;;;;;3.88;2.72;;;;;;;;;;5078546;28;20235;-85
2023/02/19 05:20:32;;;;;;;2.75;2.47;;;;;;;;;;5078567;28;20215;-86
2023/02/19 05:22:59;;;;;;;4.55;3.30;;;;;;;;;;5070844;28;20231;-87
2023/02/19 05:25:26;;;;;;;4.35;2.88;;;;;;;;;;5065604;28;20284;-86
2023/02/19 05:28:15;;;;;;;5.15;2.83;;;3.60;1.00;;;;;;5065222;28;20210;-86
2023/02/19 05:30:41;;;;;;;4.53;3.30;;;3.50;1.00;;;;;;5064109;28;20200;-87
2023/02/19 05:33:12;;;;;;;3.72;2.63;;;3.20;1.00;;;;;;5067064;28;20231;-86
2023/02/19 05:35:41;;;;;;;4.45;3.03;;;;;;;;;;5065983;28;20209;-87
2023/02/19 05:38:08;;;;;;;5.10;2.72;;;;;;;;;;5065509;28;20222;-86
2023/02/19 05:40:35;;;;;;;4.47;3.60;;;;;;;;;;5058129;28;20223;-86
2023/02/19 05:43:04;;;;;;;5.82;3.38;;;;;;;;;;5058203;28;20235;-86
2023/02/19 05:45:31;;;;;;;3.63;3.33;;;;;;;;;;5059087;28;20188;-86
2023/02/19 05:47:57;;;;;;;3.50;2.63;;;2.90;1.00;;;;;;5058843;28;20210;-86
2023/02/19 05:50:25;;;;;;;4.95;3.15;;;;;;;;;;5060236;28;20746;-86
2023/02/19 05:52:51;;;;;;;5.10;3.70;;;3.10;1.00;;;;;;5060518;28;20306;-86
2023/02/19 05:55:19;;;;;;;4.57;3.13;;;;;;;;;;5059980;28;20297;-85
2023/02/19 05:57:48;;;;;;;4.25;2.90;;;3.30;1.00;;;;;;5056452;28;20295;-87
2023/02/19 06:00:17;;;;;;;4.90;2.90;;;3.10;1.00;;;;;;5056367;28;20226;-87
2023/02/19 06:02:45;;;;;;;7.40;3.05;;;2.90;1.00;;;;;;5058766;28;20200;-87
2023/02/19 06:05:12;;;;;;;4.53;3.42;;;2.90;1.00;;;;;;5058395;28;20631;-86
2023/02/19 06:07:41;;;;;;;5.80;2.75;;;3.30;1.00;;;;;;5058675;28;20256;-86
2023/02/19 06:10:08;;;;;;;7.43;3.22;;;;;;;;;;5062055;28;20227;-87
2023/02/19 06:12:36;;;;;;;6.40;3.22;;;;;;;;;;5072023;28;20255;-86
2023/02/19 06:15:04;;;;;;;7.50;2.58;;;;;;;;;;5077238;28;20227;-85
2023/02/19 06:17:32;;;;;;;2.85;2.13;;;;;;;;;;5076360;28;20172;-87
2023/02/19 06:20:00;;;;;;;6.85;2.70;;;;;;;;;;5068686;28;20217;-87
2023/02/19 06:22:27;;;;;;;2.60;2.38;;;;;;;;;;5067485;28;20231;-86
2023/02/19 06:24:54;;;;;;;7.90;3.30;;;;;;;;;;5061813;28;20220;-86
2023/02/19 06:27:22;;;;;;;3.08;2.63;;;;;;;;;;5062813;28;20246;-86
2023/02/19 06:29:49;;;;;;;9.68;2.90;;;;;;;;;;5065164;28;20281;-86
2023/02/19 06:32:16;;;;;;;4.03;2.70;;;;;;;;;;5062992;28;20223;-86
2023/02/19 06:34:44;;;;;;;5.53;2.97;;;;;;;;;;5060687;28;20310;-85
2023/02/19 06:37:12;;;;;;;4.25;3.88;;;;;;;;;;5061127;28;20203;-86
2023/02/19 06:39:39;;;;;;;8.48;3.22;;;;;;;;;;5062028;28;20270;-86
2023/02/19 06:42:06;;;;;;;6.60;2.92;;;;;;;;;;5062060;28;20223;-86
2023/02/19 06:44:33;;;;;;;5.68;2.65;;;;;;;;;;5060860;28;20239;-86
2023/02/19 06:47:00;;;;;;;4.10;2.75;;;;;;;;;;5060061;28;20653;-85
2023/02/19 06:49:27;;;;;;;6.65;3.40;;;;;;;;;;5060861;28;20267;-85
2023/02/19 06:51:55;;;;;;;4.47;3.03;;;3.40;99.90;;;;;;5062157;28;20302;-85
2023/02/19 06:54:24;;;;;;;5.30;3.17;;;;;;;;;;5062063;28;20216;-86
2023/02/19 06:56:51;;;;;;;3.78;2.42;;;;;;;;;;5061626;28;20204;-86
2023/02/19 06:59:18;;;;;;;7.63;3.20;;;;;;;;;;5060701;28;20259;-86
2023/02/19 07:01:46;;;;;;;3.42;2.42;;;;;;;;;;5060412;28;20251;-86
2023/02/19 07:04:13;;;;;;;4.35;2.35;;;3.40;1.00;;;;;;5060104;28;20289;-86
2023/02/19 07:06:40;;;;;;;4.85;2.78;;;;;;;;;;5060462;28;20203;-86
2023/02/19 07:09:11;;;;;;;4.10;2.65;;;3.60;99.90;;;;;;5061087;28;20204;-86
2023/02/19 07:11:39;;;;;;;6.43;2.30;;;3.50;99.90;;;;;;5060281;28;20634;-86
2023/02/19 07:14:08;;;;;;;2.20;2.00;;;3.60;99.90;;;;;;5060066;28;20314;-86
2023/02/19 07:16:35;;;;;;;3.08;2.35;;;;;;;;;;5060910;28;20211;-86
2023/02/19 07:19:03;;;;;;;10.35;5.40;;;4.50;99.90;;;;;;5060569;28;20215;-86
2023/02/19 07:21:36;;;;;;;7.40;3.35;;;;;;;;;;5062169;28;20285;-86
2023/02/19 07:24:04;;;;;;;5.93;3.00;;;;;;;;;;5061587;28;20620;-85
2023/02/19 07:26:32;;;;;;;4.63;2.67;;;3.90;99.90;;;;;;5060556;28;20678;-86
2023/02/19 07:28:59;;;;;;;3.97;2.83;;;3.90;1.00;;;;;;5073463;28;20267;-85
2023/02/19 07:31:29;;;;;;;4.40;3.10;;;;;;;;;;5076664;28;20238;-86
2023/02/19 07:33:56;;;;;;;9.02;2.33;;;4.20;99.90;;;;;;5070324;28;20562;-86
2023/02/19 07:36:24;;;;;;;10.45;2.88;;;4.00;99.90;;;;;;5061032;28;20641;-86
2023/02/19 07:38:55;;;;;;;6.57;2.60;;;3.70;99.90;;;;;;5061141;28;20311;-86
2023/02/19 07:41:22;;;;;;;6.47;2.53;;;3.90;99.90;;;;;;5060899;28;20215;-86
2023/02/19 07:43:50;;;;;;;2.97;2.55;;;;;;;;;;5060386;28;20257;-86
2023/02/19 07:46:17;;;;;;;5.43;2.42;;;4.00;99.90;;;;;;5061734;28;20269;-86
2023/02/19 07:48:44;;;;;;;5.70;2.78;;;;;;;;;;5062426;28;20290;-86
2023/02/19 07:51:13;;;;;;;4.63;2.78;;;4.00;99.90;;;;;;5061999;28;20625;-86
2023/02/19 07:53:40;;;;;;;3.50;2.22;;;;;;;;;;5061240;28;20574;-86
2023/02/19 07:56:10;;;;;;;3.95;2.47;;;3.80;99.90;;;;;;5060540;28;20588;-86
2023/02/19 07:58:37;;;;;;;2.75;2.10;;;3.70;99.90;;;;;;5060498;28;20212;-86
2023/02/19 08:01:09;;;;;;;4.55;2.20;;;4.00;99.90;;;;;;5063427;28;20287;-86
2023/02/19 08:03:36;;;;;;;5.45;2.30;;;;;;;;;;5073299;28;20216;-86
2023/02/19 08:06:03;;;;;;;7.80;2.33;;;3.70;99.90;;;;;;5078637;28;20203;-85
2023/02/19 08:08:30;;;;;;;3.17;2.90;;;3.50;99.90;;;;;;5074052;28;20258;-87
2023/02/19 08:13:47;;;;;;;6.93;3.10;;;4.40;99.90;;;;;;5066738;28;20222;-86
2023/02/19 08:16:18;;;;;;;4.10;2.45;;;4.10;99.90;;;;;;5066520;28;20207;-87
2023/02/19 08:18:45;;;;;;;4.15;2.90;;;3.90;99.90;;;;;;5065563;28;20188;-86
2023/02/19 08:21:13;;;;;;;4.18;2.42;;;;;;;;;;5065962;28;20658;-86
2023/02/19 08:23:40;;;;;;;5.45;3.00;;;;;;;;;;5066027;28;20231;-87
2023/02/19 08:26:08;;;;;;;7.45;2.53;;;3.90;99.90;;;;;;5067504;28;20238;-86
2023/02/19 08:28:35;;;;;;;6.95;2.53;;;;;;;;;;5076557;28;20205;-85
2023/02/19 08:31:08;;;;;;;5.00;2.80;;;4.30;99.90;;;;;;5074844;28;20187;-87
2023/02/19 08:33:39;;;;;;;4.05;3.40;;;4.10;92.10;;;;;;5068424;28;20287;-84
2023/02/19 08:36:08;;;;;;;6.97;3.45;;;4.10;22.20;;;;;;5066969;28;20263;-86
2023/02/19 08:38:36;;;;;;;4.22;2.35;;;4.10;1.00;;;;;;5068467;28;20199;-85
2023/02/19 08:41:07;;;;;;;7.00;2.47;;;4.40;99.90;;;;;;5069811;28;20223;-85
2023/02/19 08:43:34;;;;;;;6.00;3.28;;;4.10;93.10;;;;;;5072031;28;20262;-85
2023/02/19 08:46:01;;;;;;;5.80;3.20;;;4.50;99.90;;;;;;5077329;28;20234;-86
2023/02/19 08:48:28;;;;;;;6.32;2.80;;;4.40;84.10;;;;;;5079125;28;20299;-86
2023/02/19 08:50:57;;;;;;;25.58;4.13;;;;;;;;;;5078558;28;20204;-85
2023/02/19 08:53:25;;;;;;;9.35;3.30;;;;;;;;;;5078109;28;20250;-87
2023/02/19 08:55:53;;;;;;;4.80;2.92;;;4.50;1.00;;;;;;5077421;28;20183;-86
2023/02/19 08:58:20;;;;;;;6.07;2.85;;;;;;;;;;5076898;28;20208;-87
2023/02/19 09:00:47;;;;;;;5.20;3.13;;;4.20;13.40;;;;;;5077634;28;20211;-85
2023/02/19 09:03:14;;;;;;;2.60;1.77;;;;;;;;;;5077200;28;20223;-87
2023/02/19 09:05:41;;;;;;;4.30;2.63;;;4.50;1.00;;;;;;5071729;28;20231;-87
2023/02/19 09:08:11;;;;;;;3.38;2.60;;;4.60;1.00;;;;;;5068453;28;20204;-88
2023/02/19 09:10:38;;;;;;;4.25;2.42;;;;;;;;;;5066703;28;20219;-86
2023/02/19 09:13:05;;;;;;;4.20;2.78;;;4.60;1.00;;;;;;5067466;28;20220;-87
2023/02/19 09:15:32;;;;;;;4.18;2.70;;;5.00;1.00;;;;;;5069056;28;20205;-88
2023/02/19 09:17:59;;;;;;;5.65;3.00;;;;;;;;;;5076334;28;20203;-86
2023/02/19 09:20:27;;;;;;;4.43;2.30;;;;;;;;;;5075411;28;20670;-87
2023/02/19 09:22:57;;;;;;;6.25;2.38;;;;;;;;;;5068669;28;20287;-86
2023/02/19 09:25:27;;;;;;;8.57;3.58;;;5.00;1.00;;;;;;5066578;28;20271;-87
2023/02/19 09:27:55;;;;;;;5.65;2.97;;;;;;;;;;5066229;28;20184;-86
2023/02/19 09:30:25;;;;;;;3.47;2.60;;;;;;;;;;5065429;28;20210;-88
2023/02/19 09:32:54;;;;;;;6.35;1.90;;;5.00;1.00;;;;;;5063713;28;20435;-85
2023/02/19 09:35:21;;;;;;;5.15;2.40;;;;;;;;;;5066557;28;20336;-86
2023/02/19 09:37:48;;;;;;;6.95;2.70;;;4.60;1.00;;;;;;5068447;28;20263;-87
2023/02/19 09:40:58;;;;;;;5.20;2.10;;;4.90;1.00;;;;;;5078904;28;20187;-87
2023/02/19 09:43:28;;;;;;;2.13;1.92;;;4.90;99.90;;;;;;5079092;28;20211;-86
2023/02/19 09:46:04;;;;;;;9.48;2.60;;;4.90;99.90;;;;;;5074190;28;20188;-88
2023/02/19 09:48:31;;;;;;;4.30;2.95;;;;;;;;;;5071949;28;20228;-86
2023/02/19 09:51:00;;;;;;;4.93;2.15;;;4.90;99.90;;;;;;5069943;28;20215;-87
2023/02/19 09:53:32;;;;;;;2.42;2.20;;;5.10;1.00;;;;;;5070603;28;20768;-88
2023/02/19 09:56:00;;;;;;;7.60;2.33;;;;;;;;;;5065598;28;20286;-86
2023/02/19 09:58:33;;;;;;;8.70;2.38;;;5.40;1.00;;;;;;5066084;28;20203;-85
2023/02/19 10:01:06;;;;;;;8.25;2.88;;;5.30;99.90;;;;;;5070316;28;20176;-85
2023/02/19 10:03:40;;;;;;;3.00;2.28;;;5.30;99.90;;;;;;5065571;28;20247;-85
2023/02/19 10:06:11;;;;;;;5.22;3.05;;;5.30;99.90;;;;;;5065237;28;20183;-88
2023/02/19 10:08:40;;;;;;;5.45;2.33;;;5.30;99.90;;;;;;5073854;28;20163;-86
2023/02/19 10:11:11;;;;;;;7.70;2.42;;;5.40;99.90;;;;;;5077553;28;20266;-84
2023/02/19 10:13:43;;;;;;;2.63;1.58;;;5.50;99.90;;;;;;5078345;28;20222;-84
2023/02/19 10:16:16;;;;;;;13.27;2.72;;;5.30;1.00;;;;;;5075927;28;20208;-86
2023/02/19 10:18:44;;;;;;;4.25;1.60;;;5.40;37.10;;;;;;5063668;28;20238;-86
2023/02/19 10:21:18;;;;;;;6.95;2.20;;;5.10;1.00;;;;;;5062693;28;20559;-88
2023/02/19 10:23:46;;;;;;;4.85;1.77;;;;;;;;;;5061481;28;20224;-89
2023/02/19 10:26:13;;;;;;;4.22;2.15;;;;;;;;;;5060259;28;20250;-88
2023/02/19 10:28:42;;;;;;;8.02;3.60;;;;;;;;;;5065683;28;20198;-88
2023/02/19 10:31:26;;;;;;;4.38;1.92;;;5.40;1.00;;;;;;5077131;28;20195;-88
2023/02/19 10:34:18;;;;;;;4.53;2.53;;;5.40;26.20;;;;;;5077866;28;20219;-88
2023/02/19 10:36:51;;;;;;;6.18;1.95;;;;;;;;;;5076639;28;20207;-85
2023/02/19 10:39:33;;;;;;;6.35;2.72;;;;;;;;;;5076630;28;20180;-85
2023/02/19 10:42:00;;;;;;;5.78;2.22;;;;;;;;;;5076654;28;20216;-86
2023/02/19 10:44:33;;;;;;;5.53;2.20;;;5.80;99.90;;;;;;5076839;28;20234;-86
2023/02/19 10:47:01;;;;;;;5.05;2.22;;;;;;;;;;5073403;28;20215;-86
2023/02/19 10:49:32;;;;;;;2.90;2.15;;;5.80;1.00;;;;;;5066759;28;20211;-86
2023/02/19 10:52:04;;;;;;;2.15;1.75;;;5.90;1.00;;;;;;5063515;28;20193;-86
2023/02/19 10:54:34;;;;;;;6.22;1.90;;;5.70;99.90;;;;;;5064484;28;20253;-86
2023/02/19 10:57:34;;;;;;;6.03;2.20;;;5.90;1.00;;;;;;5064337;28;20204;-87
2023/02/19 11:00:21;;;;;;;4.47;2.50;;;6.20;1.00;;;;;;5065044;28;20189;-86
2023/02/19 11:02:48;;;;;;;3.60;1.80;;;;;;;;;;5074302;22;20232;-88
2023/02/19 11:05:18;;;;;;;7.82;2.17;;;6.20;1.00;;;;;;5045901;28;20204;-86
2023/02/19 11:07:48;;;;;;;2.45;1.42;;;6.30;1.00;;;;;;5040760;28;20192;-86
2023/02/19 11:10:28;;;;;;;3.65;1.75;;;6.10;1.00;;;;;;5040889;28;20272;-86
2023/02/19 11:12:57;;;;;;;7.30;1.65;;;6.20;99.90;;;;;;5040837;28;20303;-86
2023/02/19 11:15:28;;;;;;;1.95;1.23;;;6.10;99.90;;;;;;5040090;28;20205;-87
2023/02/19 11:17:57;;;;;;;4.45;1.83;;;6.10;1.00;;;;;;5049096;28;20177;-87
2023/02/19 11:20:24;;;;;;;4.10;1.90;;;6.50;48.80;;;;;;5048757;28;20232;-87
2023/02/19 11:22:52;;;;;;;2.22;1.80;;;5.80;1.00;;;;;;5052488;28;20304;-86
2023/02/19 11:25:24;;;;;;;5.03;2.00;;;6.10;1.00;;;;;;5057335;28;20255;-86
2023/02/19 11:27:56;;;;;;;3.28;1.80;;;6.60;1.00;;;;;;5057102;28;20223;-86
2023/02/19 11:30:37;;;;;;;1.63;1.52;;;6.80;99.90;;;;;;5056585;28;20291;-85
2023/02/19 11:33:28;;;;;;;4.20;2.90;;;6.00;1.00;;;;;;5056039;28;20223;-86
2023/02/19 11:36:16;;;;;;;3.28;2.22;;;6.00;1.00;;;;;;5037338;28;20207;-84
2023/02/19 11:38:43;;;;;;;1.75;1.25;;;6.10;99.90;;;;;;5046505;28;20193;-85
2023/02/19 11:41:17;;;;;;;3.15;1.77;;;5.90;99.90;;;;;;5043277;28;20222;-85
2023/02/19 11:43:58;;;;;;;1.58;1.42;;;6.40;1.00;;;;;;5043285;28;20239;-85
2023/02/19 11:46:33;;;;;;;4.90;2.10;;;4.30;99.90;;;;;;5043782;28;20272;-85
2023/02/19 11:49:16;;;;;;;7.60;1.65;;;6.40;99.90;;;;;;5042770;28;20257;-86
2023/02/19 11:52:04;;;;;;;2.00;1.63;;;6.20;1.00;;;;;;5042332;28;20186;-85
2023/02/19 11:54:47;;;;;;;3.70;1.73;;;6.50;1.00;;;;;;5058969;28;20203;-87
2023/02/19 11:57:24;;;;;;;2.40;1.50;;;6.80;99.90;;;;;;5042167;28;20189;-85
2023/02/19 12:00:02;;;;;;;4.90;1.85;;;6.50;99.90;;;;;;5044733;28;20212;-85
2023/02/19 12:03:14;;;;;;;4.15;1.73;;;6.30;1.00;;;;;;5044101;28;20323;-84
2023/02/19 12:05:49;;;;;;;2.97;1.35;;;6.80;99.90;;;;;;5008545;28;20207;-87
2023/02/19 12:08:49;;;;;;;6.60;1.75;;;6.80;99.90;;;;;;5044339;28;20216;-85
2023/02/19 12:11:58;;;;;;;3.00;1.60;;;7.10;99.90;;;;;;5047903;28;20200;-85
2023/02/19 12:14:54;;;;;;;1.85;1.50;;;7.10;1.00;;;;;;4960990;29;20548;-84
2023/02/19 12:17:40;;;;;;;4.55;1.80;;;6.80;1.00;;;;;;4960338;29;20656;-84
2023/02/19 12:20:18;;;;;;;1.52;1.42;;;6.60;99.90;;;;;;5022661;28;20601;-85
2023/02/19 12:22:54;;;;;;;3.53;1.63;;;6.40;1.00;;;;;;5041641;28;20232;-86
2023/02/19 12:25:30;;;;;;;2.17;1.40;;;6.40;99.90;;;;;;5040981;28;20646;-87
2023/02/19 12:28:18;;;;;;;5.65;1.73;;;7.80;10.40;;;;;;5042435;28;20194;-86
2023/02/19 12:31:23;;;;;;;2.90;1.85;;;6.70;1.00;;;;;;5042616;28;20192;-87
2023/02/19 12:34:15;;;;;;;3.15;1.40;;;6.60;1.00;;;;;;4994799;28;20235;-86
2023/02/19 12:36:54;;;;;;;3.63;2.38;;;6.60;99.90;;;;;;5041211;28;20212;-86
2023/02/19 12:39:31;;;;;;;5.65;1.80;;;6.90;99.90;;;;;;5043780;28;20286;-87
2023/02/19 12:42:03;;;;;;;5.13;1.85;;;6.90;98.90;;;;;;5045402;28;20228;-85
2023/02/19 12:44:39;;;;;;;2.75;1.65;;;7.20;99.90;;;;;;5045384;28;20194;-86
2023/02/19 12:47:08;;;;;;;5.22;2.55;;;7.40;99.90;;;;;;5043802;28;20199;-85
2023/02/19 12:49:37;;;;;;;6.38;2.05;;;7.10;1.00;;;;;;5049252;28;20232;-86
2023/02/19 12:52:10;;;;;;;5.18;2.15;;;7.30;1.00;;;;;;5041484;28;20248;-87
2023/02/19 12:54:42;;;;;;;1.90;1.40;;;6.70;99.90;;;;;;5051550;28;20225;-87
2023/02/19 12:57:15;;;;;;;2.53;1.70;;;7.10;99.90;;;;;;5047300;28;20195;-86
2023/02/19 12:59:47;;;;;;;6.75;1.63;;;7.00;1.00;;;;;;5043460;28;20189;-87
2023/02/19 13:02:19;;;;;;;4.68;1.50;;;7.00;99.90;;;;;;5046360;28;20248;-87
2023/02/19 13:04:52;;;;;;;5.13;1.45;;;7.00;99.90;;;;;;5050597;28;20635;-86
2023/02/19 13:07:24;;;;;;;3.95;1.35;;;6.90;1.00;;;;;;5058782;28;20245;-86
2023/02/19 13:09:56;;;;;;;3.08;1.65;;;6.70;99.90;;;;;;5055534;28;20193;-86
2023/02/19 13:12:27;;;;;;;5.57;1.73;;;7.00;1.00;;;;;;5056971;28;20225;-87
2023/02/19 13:14:58;;;;;;;5.00;1.30;;;7.40;99.90;;;;;;5051469;28;20193;-87
2023/02/19 13:17:31;;;;;;;4.82;1.63;;;7.40;99.90;;;;;;5051709;28;20244;-86
2023/02/19 13:20:02;;;;;;;2.15;1.35;;;7.40;1.00;;;;;;5054747;28;20223;-85
2023/02/19 13:25:25;;;;;;;2.75;1.10;;;7.10;99.90;;;;;;5055848;28;20191;-87
2023/02/19 13:28:11;;;;;;;2.22;1.67;;;7.40;1.00;;;;;;5053798;28;20247;-85
2023/02/19 13:30:56;;;;;;;3.08;1.65;;;7.10;1.00;;;;;;5047382;28;20190;-86
2023/02/19 13:33:41;;;;;;;3.60;0.95;;;7.20;1.00;;;;;;5044682;28;20251;-87
2023/02/19 13:36:26;;;;;;;5.15;1.88;;;;;;;;;;5044910;28;20193;-86
2023/02/19 13:38:56;;;;;;;6.53;2.88;;;7.50;1.00;;;;;;5043649;28;20213;-86
2023/02/19 13:41:31;;;;;;;2.00;1.77;;;7.30;99.90;;;;;;5041701;28;20205;-86
2023/02/19 13:44:01;;;;;;;7.45;1.48;;;7.40;1.00;;;;;;5041768;28;20231;-86
2023/02/19 13:46:37;;;;;;;5.65;1.50;;;7.10;99.90;;;;;;5042722;28;20545;-87
2023/02/19 13:49:43;;;;;;;3.95;1.45;;;7.10;99.90;;;;;;5049918;28;20181;-87
2023/02/19 13:52:46;;;;;;;2.00;1.70;;;6.80;99.90;;;;;;5052749;28;20229;-86
2023/02/19 13:55:48;;;;;;;6.55;1.50;;;6.90;99.90;;;;;;5044447;28;20199;-87
2023/02/19 13:59:01;;;;;;;1.63;1.20;;;6.70;99.90;;;;;;5044196;28;20223;-87
2023/02/19 14:02:12;;;;;;;2.20;1.15;;;6.90;1.00;;;;;;5049469;28;20234;-87
2023/02/19 14:04:47;;;;;;;3.33;2.00;;;7.00;1.00;;;;;;5057163;28;20225;-87
2023/02/19 14:07:36;;;;;;;4.97;1.50;;;6.80;1.00;;;;;;5044542;28;20211;-86
2023/02/19 14:10:05;;;;;;;2.45;1.00;;;7.20;99.90;;;;;;5044817;28;20614;-86
2023/02/19 14:12:34;;;;;;;2.72;1.30;;;6.80;1.00;;;;;;5043845;28;20231;-88
2023/02/19 14:15:38;;;;;;;2.67;1.58;;;5.70;1.00;;;;;;5042667;28;20648;-87